Time;durP1;ratioP1;P1;durP2;ratioP2;P2;SDS_P1;SDS_P2;PMS_P1;PMS_P2;Temp;Humidity;BMP_temperature;BMP_pressure;BME280_temperature;BME280_humidity;BME280_pressure;Samples;Min_cycle;Max_cycle;Signal;HPM_P1;HPM_P2
2021/06/12 00:00:37;;;;;;;2.53;2.33;;;;;24.60;100777.00;;;;2070335;28;21160;-57
2021/06/12 00:01:37;;;;;;;2.27;2.10;;;;;24.60;100764.00;;;;2068538;28;20653;-57
2021/06/12 00:02:38;;;;;;;2.40;2.20;;;;;24.60;100764.00;;;;2070859;28;20218;-56
2021/06/12 00:03:38;;;;;;;2.17;1.97;;;;;24.60;100762.00;;;;2070990;28;20226;-57
2021/06/12 00:04:39;;;;;;;2.70;2.50;;;;;24.60;100762.00;;;;2071018;28;20317;-55
2021/06/12 00:05:39;;;;;;;2.40;2.20;;;;;24.60;100766.00;;;;2070955;28;20218;-56
2021/06/12 00:06:39;;;;;;;1.83;1.73;;;;;24.60;100763.00;;;;2071010;28;20264;-57
2021/06/12 00:07:40;;;;;;;2.03;1.93;;;;;24.60;100759.00;;;;2072395;28;20280;-59
2021/06/12 00:08:40;;;;;;;2.10;1.90;;;;;24.60;100754.00;;;;2073439;28;20225;-57
2021/06/12 00:09:40;;;;;;;2.27;2.07;;;;;24.60;100754.00;;;;2077318;28;21011;-57
2021/06/12 00:10:41;;;;;;;2.10;2.00;;;;;24.60;100763.00;;;;2071561;28;20218;-58
2021/06/12 00:11:41;;;;;;;2.23;2.13;;;;;24.60;100759.00;;;;2076472;28;20217;-57
2021/06/12 00:12:42;;;;;;;4.10;2.50;;;;;24.60;100758.00;;;;2070143;28;20389;-57
2021/06/12 00:13:42;;;;;;;2.40;2.20;;;;;24.60;100760.00;;;;2071365;28;20222;-58
2021/06/12 00:14:43;;;;;;;2.27;2.07;;;;;24.60;100757.00;;;;2086476;28;20493;-59
2021/06/12 00:15:43;;;;;;;2.30;2.10;;;;;24.60;100756.00;;;;2079083;28;20663;-57
2021/06/12 00:16:44;;;;;;;2.40;2.20;;;;;24.60;100755.00;;;;2078539;28;20209;-59
2021/06/12 00:17:44;;;;;;;2.10;2.00;;;;;24.60;100752.00;;;;2078501;28;20279;-57
2021/06/12 00:18:46;;;;;;;2.57;2.37;;;;;24.60;100752.00;;;;2078126;28;20723;-58
2021/06/12 00:19:46;;;;;;;2.05;1.95;;;;;24.60;100752.00;;;;2078582;28;20216;-57
2021/06/12 00:20:46;;;;;;;2.40;2.20;;;;;24.60;100748.00;;;;2078501;28;20216;-60
2021/06/12 00:21:47;;;;;;;2.23;2.03;;;;;24.60;100758.00;;;;2073594;28;20221;-58
2021/06/12 00:22:47;;;;;;;2.00;1.90;;;;;24.60;100747.00;;;;2071754;28;20210;-59
2021/06/12 00:23:48;;;;;;;1.77;1.67;;;;;24.60;100745.00;;;;2071214;28;20265;-56
2021/06/12 00:24:48;;;;;;;2.27;2.07;;;;;24.60;100746.00;;;;2068881;28;20301;-58
2021/06/12 00:25:48;;;;;;;2.10;2.00;;;;;24.60;100740.00;;;;2070115;28;20309;-57
2021/06/12 00:26:49;;;;;;;2.20;2.10;;;;;24.60;100739.00;;;;2075110;28;20420;-57
2021/06/12 00:27:49;;;;;;;1.90;1.80;;;;;24.60;100743.00;;;;2078589;28;20236;-59
2021/06/12 00:28:49;;;;;;;2.00;1.90;;;;;24.60;100743.00;;;;2078411;28;20228;-56
2021/06/12 00:29:50;;;;;;;2.13;2.03;;;;;24.60;100736.00;;;;2078343;28;20713;-56
2021/06/12 00:30:50;;;;;;;2.20;2.10;;;;;24.60;100736.00;;;;2074500;28;20576;-59
2021/06/12 00:31:51;;;;;;;2.20;2.10;;;;;24.60;100739.00;;;;2069963;28;20242;-58
2021/06/12 00:32:52;;;;;;;2.50;2.30;;;;;24.60;100743.00;;;;2072115;28;20695;-58
2021/06/12 00:33:53;;;;;;;1.90;1.80;;;;;24.60;100741.00;;;;2072585;28;20213;-59
2021/06/12 00:34:54;;;;;;;2.27;2.17;;;;;24.60;100745.00;;;;2072039;28;20241;-55
2021/06/12 00:35:54;;;;;;;2.40;2.30;;;;;24.60;100741.00;;;;2071423;28;20214;-57
2021/06/12 00:36:54;;;;;;;2.60;2.40;;;;;24.60;100736.00;;;;2070774;28;20225;-57
2021/06/12 00:37:55;;;;;;;2.50;2.30;;;;;24.60;100731.00;;;;2070784;28;20222;-59
2021/06/12 00:38:55;;;;;;;1.90;1.80;;;;;24.60;100742.00;;;;2070670;28;20301;-59
2021/06/12 00:39:55;;;;;;;2.30;2.10;;;;;24.60;100742.00;;;;2070946;28;20714;-57
2021/06/12 00:40:56;;;;;;;2.73;2.53;;;;;24.60;100744.00;;;;2073040;28;20300;-63
2021/06/12 00:41:56;;;;;;;2.30;2.10;;;;;24.60;100739.00;;;;2078526;28;21079;-58
2021/06/12 00:42:56;;;;;;;2.20;2.10;;;;;24.60;100740.00;;;;2078861;28;20298;-61
2021/06/12 00:43:57;;;;;;;1.90;1.80;;;;;24.60;100740.00;;;;2078876;28;20205;-60
2021/06/12 00:44:57;;;;;;;1.90;1.80;;;;;24.60;100739.00;;;;2077531;28;20333;-60
2021/06/12 00:45:57;;;;;;;2.07;1.87;;;;;24.60;100737.00;;;;2078708;28;20214;-61
2021/06/12 00:46:58;;;;;;;2.30;2.10;;;;;24.60;100743.00;;;;2078526;28;20217;-56
2021/06/12 00:47:58;;;;;;;2.60;2.20;;;;;24.60;100707.00;;;;2075073;28;20649;-57
2021/06/12 00:48:59;;;;;;;2.50;2.27;;;;;24.60;100733.00;;;;2073874;28;20210;-56
2021/06/12 00:49:59;;;;;;;2.40;2.20;;;;;24.60;100740.00;;;;2074015;28;20272;-59
2021/06/12 00:51:00;;;;;;;2.80;2.00;;;;;24.60;100738.00;;;;2069202;28;20206;-56
2021/06/12 00:52:00;;;;;;;2.23;2.13;;;;;24.60;100738.00;;;;2070318;28;20245;-55
2021/06/12 00:53:00;;;;;;;2.00;1.87;;;;;24.60;100742.00;;;;2072601;28;20664;-57
2021/06/12 00:54:01;;;;;;;1.87;1.77;;;;;24.60;100737.00;;;;2075546;28;20686;-59
2021/06/12 00:55:01;;;;;;;2.60;2.40;;;;;24.60;100734.00;;;;2070226;28;20293;-57
2021/06/12 00:56:01;;;;;;;2.30;2.10;;;;;24.60;100737.00;;;;2069607;28;20219;-59
2021/06/12 00:57:03;;;;;;;2.30;2.10;;;;;24.60;100724.00;;;;2074468;28;20206;-58
2021/06/12 00:58:04;;;;;;;2.00;1.90;;;;;24.60;100740.00;;;;2076878;28;20226;-58
2021/06/12 00:59:04;;;;;;;2.00;1.90;;;;;24.60;100732.00;;;;2079651;28;21240;-56
2021/06/12 01:00:06;;;;;;;2.10;2.00;;;;;24.60;100729.00;;;;2085859;28;20440;-57
2021/06/12 01:01:06;;;;;;;2.00;1.88;;;;;24.60;100733.00;;;;2069737;28;20702;-58
2021/06/12 01:02:07;;;;;;;2.10;2.00;;;;;24.60;100731.00;;;;2070539;28;20213;-56
2021/06/12 01:03:07;;;;;;;2.30;2.10;;;;;24.60;100724.00;;;;2073606;28;20210;-56
2021/06/12 01:04:07;;;;;;;2.13;2.03;;;;;24.60;100719.00;;;;2074029;28;20844;-54
2021/06/12 01:05:09;;;;;;;2.20;2.10;;;;;24.60;100728.00;;;;2070263;28;20265;-56
2021/06/12 01:06:09;;;;;;;2.47;2.28;;;;;24.60;100726.00;;;;2070363;28;20305;-58
2021/06/12 01:07:10;;;;;;;1.83;1.73;;;;;24.60;100725.00;;;;2070732;28;20355;-56
2021/06/12 01:08:10;;;;;;;2.00;1.90;;;;;24.60;100722.00;;;;2070891;28;20281;-57
2021/06/12 01:09:10;;;;;;;2.10;2.00;;;;;24.60;100728.00;;;;2070355;28;20305;-56
2021/06/12 01:10:14;;;;;;;2.10;2.00;;;;;24.60;100715.00;;;;2072706;28;20717;-57
2021/06/12 01:11:15;;;;;;;4.15;2.50;;;;;24.60;100727.00;;;;2078396;28;20213;-57
2021/06/12 01:12:21;;;;;;;2.20;2.00;;;;;24.60;100722.00;;;;2077819;28;20267;-56
2021/06/12 01:13:37;;;;;;;2.83;2.63;;;;;24.60;100726.00;;;;2077074;28;20229;-57
2021/06/12 01:14:41;;;;;;;2.22;2.05;;;;;24.60;100729.00;;;;2070064;28;20221;-56
2021/06/12 01:16:13;;;;;;;2.40;2.20;;;;;24.60;100728.00;;;;2069582;28;20214;-57
2021/06/12 01:17:33;;;;;;;1.90;1.80;;;;;24.60;100728.00;;;;2057024;28;20249;-57
2021/06/12 01:18:34;;;;;;;2.00;1.90;;;;;24.60;100726.00;;;;2072322;28;20221;-58
2021/06/12 01:19:37;;;;;;;2.20;2.00;;;;;24.60;100726.00;;;;2077225;28;20233;-59
2021/06/12 01:21:09;;;;;;;2.10;2.00;;;;;24.60;100715.00;;;;2077986;28;20491;-55
2021/06/12 01:22:36;;;;;;;2.20;2.10;;;;;24.60;100722.00;;;;2077778;28;20260;-56
2021/06/12 01:24:03;;;;;;;2.28;2.08;;;;;24.60;100723.00;;;;2060609;28;20202;-58
2021/06/12 01:25:07;;;;;;;2.08;1.98;;;;;24.40;100726.00;;;;2085631;28;20362;-57
2021/06/12 01:26:24;;;;;;;2.53;2.00;;;;;24.60;100726.00;;;;2083619;28;20747;-56
2021/06/12 01:27:36;;;;;;;1.90;1.80;;;;;24.60;100720.00;;;;2079545;28;20229;-59
2021/06/12 01:28:58;;;;;;;2.13;1.98;;;;;24.60;100720.00;;;;2075634;28;20220;-57
2021/06/12 01:30:03;;;;;;;2.58;2.38;;;;;24.60;100728.00;;;;2076119;28;20218;-58
2021/06/12 01:31:03;;;;;;;2.10;2.00;;;;;24.60;100729.00;;;;2071617;28;20201;-56
2021/06/12 01:32:04;;;;;;;2.10;2.00;;;;;24.60;100721.00;;;;2079480;28;20263;-56
2021/06/12 01:33:06;;;;;;;2.00;1.90;;;;;24.60;100720.00;;;;2076249;28;20226;-59
2021/06/12 01:34:06;;;;;;;2.03;1.83;;;;;24.60;100728.00;;;;2074024;28;20326;-57
2021/06/12 01:35:12;;;;;;;1.83;1.73;;;;;24.60;100728.00;;;;2075362;28;20291;-57
2021/06/12 01:36:12;;;;;;;1.85;1.75;;;;;24.60;100725.00;;;;2069142;28;20210;-57
2021/06/12 01:37:13;;;;;;;2.10;2.00;;;;;24.60;100725.00;;;;2079062;28;20216;-59
2021/06/12 01:38:30;;;;;;;2.53;2.33;;;;;24.40;100727.00;;;;2092654;28;20220;-57
2021/06/12 01:39:30;;;;;;;2.40;2.20;;;;;24.60;100726.00;;;;2082014;28;20212;-57
2021/06/12 01:40:35;;;;;;;2.17;1.97;;;;;24.60;100725.00;;;;2078907;28;20221;-57
2021/06/12 01:41:35;;;;;;;2.60;2.40;;;;;24.60;100729.00;;;;2070868;28;20785;-57
2021/06/12 01:42:36;;;;;;;2.70;2.50;;;;;24.60;100732.00;;;;2071232;28;20305;-56
2021/06/12 01:43:37;;;;;;;2.43;2.23;;;;;24.60;100725.00;;;;2071268;28;20218;-60
2021/06/12 01:44:37;;;;;;;2.40;2.20;;;;;24.60;100727.00;;;;2070010;28;20536;-59
2021/06/12 01:45:44;;;;;;;2.60;2.40;;;;;24.50;100729.00;;;;2079623;28;20228;-55
2021/06/12 01:46:45;;;;;;;2.42;2.22;;;;;24.60;100736.00;;;;2078645;28;20576;-58
2021/06/12 01:47:46;;;;;;;2.40;2.20;;;;;24.60;100731.00;;;;2071441;28;20210;-58
2021/06/12 01:48:46;;;;;;;2.60;2.40;;;;;24.60;100731.00;;;;2079440;28;20536;-56
2021/06/12 01:49:47;;;;;;;2.10;2.00;;;;;24.60;100727.00;;;;2079477;28;20210;-59
2021/06/12 01:50:47;;;;;;;2.00;1.90;;;;;24.60;100731.00;;;;2063394;28;20207;-57
2021/06/12 01:51:47;;;;;;;2.40;2.20;;;;;24.60;100734.00;;;;2061966;28;20242;-55
2021/06/12 01:52:48;;;;;;;2.37;2.20;;;;;24.60;100756.00;;;;2063157;28;20277;-57
2021/06/12 01:53:51;;;;;;;2.40;2.20;;;;;24.60;100739.00;;;;2075216;28;20765;-55
2021/06/12 01:54:51;;;;;;;2.20;2.03;;;;;24.60;100743.00;;;;2071589;28;20245;-58
2021/06/12 01:55:51;;;;;;;2.43;2.23;;;;;24.60;100745.00;;;;2079322;28;20202;-59
2021/06/12 01:56:52;;;;;;;2.17;2.00;;;;;24.60;100739.00;;;;2079142;28;20204;-59
2021/06/12 01:57:52;;;;;;;2.00;1.90;;;;;24.60;100738.00;;;;2079401;28;20213;-56
2021/06/12 01:58:52;;;;;;;2.50;2.30;;;;;24.60;100744.00;;;;2079732;28;20209;-57
2021/06/12 01:59:53;;;;;;;2.07;1.97;;;;;24.60;100737.00;;;;2079981;28;20205;-57
2021/06/12 02:00:53;;;;;;;2.53;2.33;;;;;24.60;100742.00;;;;2079877;28;20259;-58
2021/06/12 02:01:54;;;;;;;2.50;2.17;;;;;24.60;100747.00;;;;2078600;28;20462;-57
2021/06/12 02:02:55;;;;;;;2.50;2.30;;;;;24.60;100739.00;;;;2075281;28;20211;-57
2021/06/12 02:03:55;;;;;;;2.67;2.47;;;;;24.60;100747.00;;;;2065268;28;20707;-60
2021/06/12 02:04:56;;;;;;;1.80;1.70;;;;;24.60;100745.00;;;;2072819;28;20699;-58
2021/06/12 02:05:58;;;;;;;2.50;2.30;;;;;24.60;100743.00;;;;2071249;28;20933;-59
2021/06/12 02:07:02;;;;;;;2.20;2.00;;;;;24.60;100711.00;;;;2079349;28;20757;-58
2021/06/12 02:08:02;;;;;;;2.50;2.30;;;;;24.60;100755.00;;;;2078466;28;20271;-55
2021/06/12 02:09:04;;;;;;;2.50;2.30;;;;;24.60;100748.00;;;;2071114;28;20218;-57
2021/06/12 02:10:05;;;;;;;2.58;2.20;;;;;24.60;100753.00;;;;2078689;28;20284;-58
2021/06/12 02:11:05;;;;;;;2.00;1.90;;;;;24.60;100748.00;;;;2066672;28;20691;-57
2021/06/12 02:12:07;;;;;;;2.37;2.23;;;;;24.60;100749.00;;;;2071162;28;21013;-59
2021/06/12 02:13:08;;;;;;;2.10;2.00;;;;;24.60;100750.00;;;;2085299;28;21109;-58
2021/06/12 02:14:08;;;;;;;2.50;2.30;;;;;24.60;100753.00;;;;2072955;28;20318;-57
2021/06/12 02:15:09;;;;;;;2.63;2.40;;;;;24.60;100751.00;;;;2079329;28;20333;-55
2021/06/12 02:16:10;;;;;;;2.60;2.40;;;;;24.60;100749.00;;;;2079588;28;20222;-59
2021/06/12 02:17:10;;;;;;;2.30;2.20;;;;;24.60;100757.00;;;;2071737;28;20683;-58
2021/06/12 02:18:11;;;;;;;2.63;2.20;;;;;24.60;100757.00;;;;2070340;28;20222;-55
2021/06/12 02:19:11;;;;;;;2.67;2.30;;;;;24.60;100752.00;;;;2070790;28;20726;-60
2021/06/12 02:20:14;;;;;;;2.97;2.23;;;;;24.60;100749.00;;;;2071130;28;20217;-60
2021/06/12 02:21:15;;;;;;;2.33;2.15;;;;;24.60;100752.00;;;;2071974;28;20416;-58
2021/06/12 02:22:15;;;;;;;2.00;1.90;;;;;24.60;100747.00;;;;2078373;28;20205;-56
2021/06/12 02:23:15;;;;;;;2.33;2.13;;;;;24.60;100753.00;;;;2078693;28;20698;-57
2021/06/12 02:24:16;;;;;;;2.30;2.10;;;;;24.60;100757.00;;;;2078674;28;20702;-58
2021/06/12 02:25:16;;;;;;;2.50;2.30;;;;;24.60;100756.00;;;;2078417;28;20295;-58
2021/06/12 02:26:17;;;;;;;2.33;2.13;;;;;24.60;100751.00;;;;2079115;28;20225;-59
2021/06/12 02:27:18;;;;;;;2.10;2.00;;;;;24.60;100755.00;;;;2074880;28;20848;-55
2021/06/12 02:28:19;;;;;;;2.57;2.30;;;;;24.60;100754.00;;;;2069546;28;20230;-58
2021/06/12 02:29:19;;;;;;;2.00;1.90;;;;;24.60;100745.00;;;;2078705;28;20320;-57
2021/06/12 02:30:21;;;;;;;2.00;1.90;;;;;24.40;100742.00;;;;2071951;28;20309;-57
2021/06/12 02:31:25;;;;;;;2.00;1.90;;;;;24.60;100751.00;;;;2067590;28;20748;-57
2021/06/12 02:32:25;;;;;;;2.50;2.30;;;;;24.50;100748.00;;;;2070590;28;20214;-55
2021/06/12 02:33:25;;;;;;;2.50;2.30;;;;;24.60;100743.00;;;;2067323;28;20297;-57
2021/06/12 02:34:26;;;;;;;2.53;2.33;;;;;24.60;100753.00;;;;2073759;28;20292;-58
2021/06/12 02:35:26;;;;;;;2.33;2.13;;;;;24.60;100751.00;;;;2073170;28;20313;-59
2021/06/12 02:36:26;;;;;;;2.40;2.20;;;;;24.50;100751.00;;;;2071117;28;20764;-57
2021/06/12 02:37:27;;;;;;;2.50;2.30;;;;;24.60;100752.00;;;;2070992;28;20226;-58
2021/06/12 02:38:27;;;;;;;2.57;2.37;;;;;24.50;100751.00;;;;2077565;28;20225;-59
2021/06/12 02:39:28;;;;;;;2.33;2.20;;;;;24.60;100751.00;;;;2078427;28;20252;-56
2021/06/12 02:40:28;;;;;;;2.47;2.27;;;;;24.60;100752.00;;;;2079097;28;20311;-55
2021/06/12 02:41:29;;;;;;;2.00;1.87;;;;;24.60;100749.00;;;;2073608;28;20450;-56
2021/06/12 02:42:29;;;;;;;2.33;2.20;;;;;24.60;100751.00;;;;2071299;28;20218;-58
2021/06/12 02:43:30;;;;;;;2.00;1.90;;;;;24.60;100747.00;;;;2070802;28;20743;-56
2021/06/12 02:44:30;;;;;;;2.30;2.10;;;;;24.50;100744.00;;;;2071183;28;20299;-58
2021/06/12 02:45:30;;;;;;;1.97;1.83;;;;;24.60;100744.00;;;;2070840;28;20246;-57
2021/06/12 02:46:31;;;;;;;2.20;2.00;;;;;24.60;100748.00;;;;2069887;28;20304;-59
2021/06/12 02:47:32;;;;;;;2.15;2.05;;;;;24.60;100747.00;;;;2078426;28;20248;-58
2021/06/12 02:48:32;;;;;;;2.30;2.10;;;;;24.60;100749.00;;;;2067996;28;20230;-60
2021/06/12 02:49:36;;;;;;;2.27;2.07;;;;;24.60;100746.00;;;;2085034;28;20243;-58
2021/06/12 02:50:36;;;;;;;2.40;2.20;;;;;24.50;100741.00;;;;2086244;28;20227;-59
2021/06/12 02:51:39;;;;;;;2.47;2.27;;;;;24.60;100738.00;;;;2068356;28;20256;-58
2021/06/12 02:52:40;;;;;;;2.30;2.20;;;;;24.60;100745.00;;;;2070256;28;20645;-55
2021/06/12 02:53:41;;;;;;;2.27;2.07;;;;;24.50;100747.00;;;;2078299;28;20304;-58
2021/06/12 02:54:43;;;;;;;2.10;2.00;;;;;24.60;100751.00;;;;2079536;28;20217;-59
2021/06/12 02:55:46;;;;;;;2.55;2.35;;;;;24.60;100748.00;;;;2079241;28;20210;-59
2021/06/12 02:56:47;;;;;;;2.60;2.40;;;;;24.50;100753.00;;;;2079289;28;20245;-63
2021/06/12 02:57:48;;;;;;;2.00;1.90;;;;;24.50;100752.00;;;;2077572;28;20213;-60
2021/06/12 02:58:48;;;;;;;2.55;2.35;;;;;24.50;100741.00;;;;2070823;28;20221;-56
2021/06/12 02:59:49;;;;;;;2.60;2.40;;;;;24.50;100745.00;;;;2070258;28;20292;-57
2021/06/12 03:00:49;;;;;;;2.20;2.00;;;;;24.50;100752.00;;;;2070658;28;20221;-58
2021/06/12 03:01:49;;;;;;;1.90;1.80;;;;;24.50;100748.00;;;;2070200;28;20602;-57
2021/06/12 03:02:50;;;;;;;2.43;2.23;;;;;24.60;100753.00;;;;2071295;28;20218;-56
2021/06/12 03:03:51;;;;;;;2.53;2.33;;;;;24.60;100749.00;;;;2070494;28;20559;-56
2021/06/12 03:04:51;;;;;;;2.27;2.07;;;;;24.50;100746.00;;;;2056966;28;20578;-58
2021/06/12 03:05:56;;;;;;;2.47;1.90;;;;;24.50;100757.00;;;;2064415;28;20222;-60
2021/06/12 03:06:56;;;;;;;1.85;1.75;;;;;24.50;100759.00;;;;2070276;28;20210;-57
2021/06/12 03:07:57;;;;;;;2.23;2.13;;;;;24.50;100746.00;;;;2070864;28;20294;-59
2021/06/12 03:08:58;;;;;;;2.13;2.03;;;;;24.50;100754.00;;;;2078332;28;20218;-55
2021/06/12 03:09:59;;;;;;;2.43;2.23;;;;;24.50;100752.00;;;;2086723;28;20216;-56
2021/06/12 03:10:59;;;;;;;1.80;1.70;;;;;24.50;100757.00;;;;2084934;28;20259;-57
2021/06/12 03:12:00;;;;;;;2.00;1.90;;;;;24.60;100749.00;;;;2078516;28;20217;-57
2021/06/12 03:13:01;;;;;;;2.23;2.07;;;;;24.60;100750.00;;;;2078887;28;20296;-57
2021/06/12 03:14:02;;;;;;;2.50;2.30;;;;;24.50;100751.00;;;;2078987;28;20209;-59
2021/06/12 03:15:02;;;;;;;2.13;2.03;;;;;24.50;100758.00;;;;2073451;28;20206;-59
2021/06/12 03:16:03;;;;;;;2.47;2.20;;;;;24.50;100749.00;;;;2078970;28;20213;-57
2021/06/12 03:17:03;;;;;;;2.60;2.40;;;;;24.60;100748.00;;;;2073559;28;20233;-58
2021/06/12 03:18:03;;;;;;;1.90;1.80;;;;;24.50;100752.00;;;;2078630;28;20224;-58
2021/06/12 03:19:04;;;;;;;2.53;2.33;;;;;24.50;100749.00;;;;2078743;28;20224;-57
2021/06/12 03:20:05;;;;;;;2.67;2.50;;;;;24.50;100741.00;;;;2078805;28;20221;-58
2021/06/12 03:21:05;;;;;;;2.30;2.10;;;;;24.50;100747.00;;;;2077546;28;20205;-59
2021/06/12 03:22:06;;;;;;;2.00;1.90;;;;;24.50;100748.00;;;;2070527;28;20210;-58
2021/06/12 03:23:06;;;;;;;2.10;1.90;;;;;24.50;100749.00;;;;2077888;28;20240;-59
2021/06/12 03:24:07;;;;;;;2.60;2.40;;;;;24.50;100743.00;;;;2078077;28;20244;-57
2021/06/12 03:25:08;;;;;;;2.23;2.13;;;;;24.60;100740.00;;;;2069808;28;20221;-55
2021/06/12 03:26:11;;;;;;;2.33;2.13;;;;;24.50;100744.00;;;;2057505;28;20219;-57
2021/06/12 03:27:11;;;;;;;2.30;2.10;;;;;24.50;100745.00;;;;2062297;28;20458;-59
2021/06/12 03:28:12;;;;;;;2.00;1.80;;;;;24.50;100741.00;;;;2062723;28;20290;-59
2021/06/12 03:29:12;;;;;;;2.50;2.30;;;;;24.50;100737.00;;;;2069433;28;20211;-57
2021/06/12 03:30:13;;;;;;;2.37;2.17;;;;;24.50;100740.00;;;;2086175;28;20700;-56
2021/06/12 03:31:14;;;;;;;2.10;1.98;;;;;24.50;100742.00;;;;2085663;28;20220;-58
2021/06/12 03:32:14;;;;;;;2.40;2.20;;;;;24.50;100746.00;;;;2069914;28;20695;-59
2021/06/12 03:33:15;;;;;;;2.10;1.90;;;;;24.50;100741.00;;;;2073435;28;20604;-58
2021/06/12 03:34:15;;;;;;;2.30;2.10;;;;;24.50;100734.00;;;;2071624;28;20213;-57
2021/06/12 03:35:16;;;;;;;2.20;2.10;;;;;24.50;100740.00;;;;2065950;28;20222;-57
2021/06/12 03:36:17;;;;;;;2.43;2.23;;;;;24.50;100743.00;;;;2069978;28;20210;-59
2021/06/12 03:37:17;;;;;;;2.20;2.00;;;;;24.50;100740.00;;;;2069073;28;20222;-56
2021/06/12 03:38:17;;;;;;;2.50;2.30;;;;;24.50;100733.00;;;;2061903;28;20343;-56
2021/06/12 03:39:18;;;;;;;2.07;1.97;;;;;24.50;100726.00;;;;2078162;28;20933;-57
2021/06/12 03:40:18;;;;;;;2.33;2.20;;;;;24.50;100732.00;;;;2069880;28;20226;-58
2021/06/12 03:41:19;;;;;;;2.10;1.97;;;;;24.50;100737.00;;;;2076137;28;20220;-56
2021/06/12 03:42:20;;;;;;;2.10;2.00;;;;;24.50;100736.00;;;;2077750;28;20221;-55
2021/06/12 03:43:20;;;;;;;1.87;1.77;;;;;24.50;100733.00;;;;2078096;28;20217;-56
2021/06/12 03:44:21;;;;;;;2.30;2.10;;;;;24.50;100733.00;;;;2078168;28;20555;-59
2021/06/12 03:45:21;;;;;;;2.30;2.20;;;;;24.50;100729.00;;;;2077756;28;20221;-57
2021/06/12 03:46:21;;;;;;;2.03;1.93;;;;;24.50;100728.00;;;;2078569;28;20218;-56
2021/06/12 03:47:22;;;;;;;2.13;1.93;;;;;24.50;100731.00;;;;2078467;28;20706;-58
2021/06/12 03:48:23;;;;;;;1.93;1.83;;;;;24.50;100655.00;;;;2078403;28;20222;-58
2021/06/12 03:49:23;;;;;;;1.90;1.80;;;;;24.50;100732.00;;;;2086635;28;20455;-59
2021/06/12 03:50:25;;;;;;;2.10;2.00;;;;;24.50;100728.00;;;;2078406;28;20209;-55
2021/06/12 03:51:26;;;;;;;2.05;1.95;;;;;24.50;100729.00;;;;2077632;28;20724;-58
2021/06/12 03:52:27;;;;;;;1.90;1.80;;;;;24.50;100740.00;;;;2070270;28;20300;-57
2021/06/12 03:53:43;;;;;;;2.30;2.10;;;;;24.50;100742.00;;;;2070621;28;20218;-57
2021/06/12 03:54:43;;;;;;;2.40;2.17;;;;;24.50;100746.00;;;;2085004;28;20208;-58
2021/06/12 03:55:44;;;;;;;2.20;2.10;;;;;24.50;100737.00;;;;2075664;28;20837;-56
2021/06/12 03:56:44;;;;;;;1.80;1.70;;;;;24.50;100742.00;;;;2070390;28;20575;-57
2021/06/12 03:57:44;;;;;;;2.37;2.17;;;;;24.50;100747.00;;;;2078417;28;20304;-57
2021/06/12 03:58:45;;;;;;;1.80;1.70;;;;;24.50;100742.00;;;;2078675;28;20355;-58
2021/06/12 03:59:46;;;;;;;2.42;2.10;;;;;24.50;100742.00;;;;2083276;28;20236;-57
2021/06/12 04:00:46;;;;;;;2.30;2.10;;;;;24.50;100752.00;;;;2078349;28;20218;-58
2021/06/12 04:01:47;;;;;;;2.20;2.00;;;;;24.50;100756.00;;;;2078116;28;20314;-57
2021/06/12 04:02:48;;;;;;;2.40;2.20;;;;;24.50;100755.00;;;;2075426;28;20226;-59
2021/06/12 04:03:48;;;;;;;2.20;2.00;;;;;24.50;100760.00;;;;2070603;28;20221;-57
2021/06/12 04:04:49;;;;;;;2.27;2.07;;;;;24.50;100764.00;;;;2074423;28;20453;-59
2021/06/12 04:05:49;;;;;;;1.90;1.80;;;;;24.50;100760.00;;;;2068089;28;20221;-58
2021/06/12 04:06:50;;;;;;;1.93;1.83;;;;;24.50;100769.00;;;;2070861;28;20222;-58
2021/06/12 04:07:50;;;;;;;2.13;2.03;;;;;24.50;100763.00;;;;2071084;28;20229;-57
2021/06/12 04:08:50;;;;;;;2.07;1.97;;;;;24.50;100754.00;;;;2070967;28;20213;-57
2021/06/12 04:09:51;;;;;;;2.20;2.10;;;;;24.50;100759.00;;;;2071022;28;20577;-58
2021/06/12 04:10:51;;;;;;;2.20;2.00;;;;;24.50;100753.00;;;;2070749;28;20293;-57
2021/06/12 04:11:51;;;;;;;1.93;1.83;;;;;24.50;100750.00;;;;2069687;28;20795;-59
2021/06/12 04:12:52;;;;;;;2.23;2.03;;;;;24.50;100756.00;;;;2071128;28;20576;-58
2021/06/12 04:13:52;;;;;;;1.60;1.50;;;;;24.50;100747.00;;;;2078367;28;20213;-55
2021/06/12 04:14:52;;;;;;;1.93;1.83;;;;;24.50;100747.00;;;;2078558;28;20300;-57
2021/06/12 04:15:53;;;;;;;1.93;1.80;;;;;24.50;100751.00;;;;2078339;28;20244;-57
2021/06/12 04:16:53;;;;;;;2.20;2.00;;;;;24.50;100748.00;;;;2078836;28;20218;-58
2021/06/12 04:18:01;;;;;;;2.30;2.10;;;;;24.50;100756.00;;;;2078866;28;20234;-60
2021/06/12 04:19:01;;;;;;;2.40;2.05;;;;;24.50;100741.00;;;;2076071;28;20694;-59
2021/06/12 04:20:02;;;;;;;2.17;1.97;;;;;24.50;100741.00;;;;2070904;28;20242;-59
2021/06/12 04:21:03;;;;;;;2.30;1.92;;;;;24.50;100742.00;;;;2068913;28;20281;-57
2021/06/12 04:22:04;;;;;;;1.87;1.77;;;;;24.50;100746.00;;;;2070227;28;20210;-59
2021/06/12 04:23:05;;;;;;;1.80;1.70;;;;;24.50;100748.00;;;;2070791;28;20464;-57
2021/06/12 04:24:05;;;;;;;2.03;1.83;;;;;24.50;100748.00;;;;2070975;28;20687;-58
2021/06/12 04:25:06;;;;;;;2.10;2.00;;;;;24.50;100758.00;;;;2070767;28;20208;-58
2021/06/12 04:26:06;;;;;;;1.97;1.87;;;;;24.50;100753.00;;;;2071060;28;20256;-57
2021/06/12 04:27:07;;;;;;;2.33;2.13;;;;;24.50;100749.00;;;;2070800;28;20450;-57
2021/06/12 04:28:07;;;;;;;1.93;1.83;;;;;24.50;100749.00;;;;2071124;28;20205;-57
2021/06/12 04:29:08;;;;;;;2.03;1.93;;;;;24.50;100737.00;;;;2070935;28;20218;-56
2021/06/12 04:30:08;;;;;;;2.37;2.13;;;;;24.50;100736.00;;;;2070918;28;20206;-57
2021/06/12 04:31:09;;;;;;;2.00;1.90;;;;;24.50;100735.00;;;;2070125;28;20211;-58
2021/06/12 04:32:09;;;;;;;1.90;1.80;;;;;24.50;100732.00;;;;2070839;28;20461;-57
2021/06/12 04:33:09;;;;;;;2.53;2.33;;;;;24.50;100736.00;;;;2074443;28;20311;-57
2021/06/12 04:34:10;;;;;;;2.07;1.90;;;;;24.50;100732.00;;;;2072616;28;20876;-58
2021/06/12 04:35:11;;;;;;;1.90;1.80;;;;;24.50;100737.00;;;;2072365;28;20633;-58
2021/06/12 04:36:11;;;;;;;1.80;1.70;;;;;24.50;100735.00;;;;2070704;28;20206;-58
2021/06/12 04:37:12;;;;;;;2.10;1.87;;;;;24.50;100738.00;;;;2070782;28;20214;-57
2021/06/12 04:38:12;;;;;;;1.90;1.80;;;;;24.50;100733.00;;;;2070766;28;20306;-60
2021/06/12 04:39:13;;;;;;;1.70;1.60;;;;;24.50;100724.00;;;;2074748;28;20297;-56
2021/06/12 04:40:14;;;;;;;2.03;1.93;;;;;24.50;100717.00;;;;2079075;28;20202;-58
2021/06/12 04:41:14;;;;;;;2.03;1.93;;;;;24.50;100731.00;;;;2078238;28;20216;-59
2021/06/12 04:42:14;;;;;;;2.20;2.00;;;;;24.50;100727.00;;;;2078901;28;20221;-59
2021/06/12 04:43:15;;;;;;;1.97;1.87;;;;;24.50;100728.00;;;;2079116;28;20230;-56
2021/06/12 04:44:15;;;;;;;2.03;1.83;;;;;24.50;100720.00;;;;2078959;28;20217;-57
2021/06/12 04:45:16;;;;;;;1.70;1.60;;;;;24.50;100735.00;;;;2078913;28;20201;-57
2021/06/12 04:46:16;;;;;;;2.40;1.97;;;;;24.50;100723.00;;;;2078227;28;20649;-58
2021/06/12 04:47:16;;;;;;;2.30;2.10;;;;;24.50;100732.00;;;;2078976;28;20344;-57
2021/06/12 04:48:17;;;;;;;2.00;1.80;;;;;24.50;100733.00;;;;2077309;28;20220;-58
2021/06/12 04:49:17;;;;;;;1.90;1.80;;;;;24.50;100728.00;;;;2070877;28;20214;-55
2021/06/12 04:50:17;;;;;;;1.97;1.80;;;;;24.50;100726.00;;;;2078170;28;20229;-56
2021/06/12 04:51:18;;;;;;;2.20;2.00;;;;;24.50;100732.00;;;;2077586;28;20244;-57
2021/06/12 04:52:18;;;;;;;2.20;2.00;;;;;24.50;100726.00;;;;2070603;28;20293;-57
2021/06/12 04:53:18;;;;;;;2.00;1.90;;;;;24.50;100718.00;;;;2070446;28;20210;-57
2021/06/12 04:54:19;;;;;;;2.30;2.10;;;;;24.50;100726.00;;;;2070774;28;20308;-55
2021/06/12 04:55:19;;;;;;;1.90;1.80;;;;;24.50;100693.00;;;;2070637;28;20210;-56
2021/06/12 04:56:20;;;;;;;1.63;1.53;;;;;24.50;100724.00;;;;2070847;28;20222;-57
2021/06/12 04:57:21;;;;;;;2.17;1.90;;;;;24.50;100721.00;;;;2070865;28;20211;-58
2021/06/12 04:58:22;;;;;;;1.90;1.77;;;;;24.50;100722.00;;;;2071350;28;20695;-58
2021/06/12 04:59:22;;;;;;;1.70;1.60;;;;;24.50;100727.00;;;;2072137;28;20211;-58
2021/06/12 05:00:23;;;;;;;1.70;1.60;;;;;24.50;100724.00;;;;2072276;28;20453;-57
2021/06/12 05:01:23;;;;;;;1.80;1.70;;;;;24.50;100720.00;;;;2071621;28;20714;-57
2021/06/12 05:02:23;;;;;;;2.00;1.90;;;;;24.50;100726.00;;;;2072349;28;20520;-56
2021/06/12 05:03:24;;;;;;;2.20;2.00;;;;;24.50;100731.00;;;;2075780;28;20280;-57
2021/06/12 05:04:24;;;;;;;1.60;1.50;;;;;24.50;100723.00;;;;2075974;28;20226;-57